createdAt,value
2019-04-11T00:01:08.774Z,31.00
2019-04-11T00:03:39.640Z,36.40
2019-04-11T00:06:11.835Z,34.17
2019-04-11T00:08:41.903Z,27.95
2019-04-11T00:11:11.635Z,30.92
2019-04-11T00:13:41.205Z,27.40
2019-04-11T00:16:10.556Z,29.98
2019-04-11T00:18:41.021Z,31.30
2019-04-11T00:21:10.811Z,36.47
2019-04-11T00:23:40.763Z,34.63
2019-04-11T00:26:10.279Z,33.67
2019-04-11T00:28:39.619Z,27.93
2019-04-11T00:31:08.911Z,30.10
2019-04-11T00:33:39.071Z,39.03
2019-04-11T00:36:08.359Z,29.50
2019-04-11T00:38:38.231Z,30.82
2019-04-11T00:41:07.956Z,32.13
2019-04-11T00:43:41.691Z,30.23
2019-04-11T00:46:08.172Z,26.20
2019-04-11T00:48:37.716Z,29.60
2019-04-11T00:51:07.758Z,29.43
2019-04-11T00:53:38.238Z,28.80
2019-04-11T00:56:08.186Z,36.50
2019-04-11T00:58:38.675Z,31.05
2019-04-11T01:01:09.330Z,28.17
2019-04-11T01:03:39.422Z,29.17
2019-04-11T01:06:09.984Z,29.43
2019-04-11T01:08:39.930Z,26.00
2019-04-11T01:11:09.918Z,28.50
2019-04-11T01:13:47.324Z,32.57
2019-04-11T01:16:23.755Z,28.30
2019-04-11T01:18:54.035Z,26.00
2019-04-11T01:21:24.285Z,32.03
2019-04-11T01:23:53.460Z,30.10
2019-04-11T01:26:23.299Z,28.50
2019-04-11T01:28:55.392Z,25.73
2019-04-11T01:31:27.346Z,31.57
2019-04-11T01:33:56.584Z,29.57
2019-04-11T01:36:26.957Z,26.85
2019-04-11T01:38:59.007Z,27.27
2019-04-11T01:41:28.847Z,33.30
2019-04-11T01:44:02.210Z,29.27
2019-04-11T01:46:29.831Z,24.90
2019-04-11T01:49:08.108Z,27.35
2019-04-11T01:51:37.990Z,27.30
2019-04-11T01:54:07.770Z,32.28
2019-04-11T01:56:37.127Z,30.83
2019-04-11T01:59:07.003Z,29.33
2019-04-11T02:01:43.192Z,28.20
2019-04-11T02:04:30.072Z,29.80
2019-04-11T02:07:00.381Z,32.23
2019-04-11T02:09:30.396Z,29.00
2019-04-11T02:11:59.753Z,30.35
2019-04-11T02:14:29.267Z,27.32
2019-04-11T02:16:59.303Z,32.50
2019-04-11T02:19:28.997Z,28.12
2019-04-11T02:22:13.847Z,25.23
2019-04-11T02:24:52.253Z,29.63
2019-04-11T02:27:25.882Z,26.70
2019-04-11T02:29:55.396Z,27.07
2019-04-11T02:32:27.109Z,26.07
2019-04-11T02:34:59.153Z,29.40
2019-04-11T02:37:29.212Z,30.37
2019-04-11T02:40:00.340Z,27.13
2019-04-11T02:42:30.752Z,25.93
2019-04-11T02:45:16.525Z,27.75
2019-04-11T02:47:33.306Z,28.93
2019-04-11T02:50:03.658Z,25.40
2019-04-11T02:52:33.536Z,27.58
2019-04-11T02:55:05.631Z,22.73
2019-04-11T02:57:36.244Z,25.70
2019-04-11T03:00:06.510Z,25.50
2019-04-11T03:02:37.015Z,28.23
2019-04-11T03:05:07.138Z,25.50
2019-04-11T03:07:38.109Z,28.67
2019-04-11T03:10:11.496Z,30.77
2019-04-11T03:12:40.399Z,28.47
2019-04-11T03:15:28.976Z,26.87
2019-04-11T03:17:43.916Z,27.27
2019-04-11T03:20:23.135Z,26.80
2019-04-11T03:22:44.695Z,24.73
2019-04-11T03:25:13.796Z,25.80
2019-04-11T03:27:43.381Z,28.43
2019-04-11T03:30:21.008Z,24.82
2019-04-11T03:33:46.954Z,23.87
2019-04-11T03:36:07.618Z,24.07
2019-04-11T03:38:12.385Z,27.40
2019-04-11T03:40:38.655Z,21.83
2019-04-11T03:43:07.431Z,24.53
2019-04-11T03:45:46.731Z,22.40
2019-04-11T03:48:10.165Z,23.63
2019-04-11T03:50:30.626Z,27.00
2019-04-11T03:52:59.462Z,26.10
2019-04-11T03:55:30.713Z,24.20
2019-04-11T03:58:01.304Z,24.40
2019-04-11T04:00:35.947Z,23.13
2019-04-11T04:03:03.749Z,28.65
2019-04-11T04:05:36.513Z,24.25
2019-04-11T04:08:06.103Z,23.15
2019-04-11T04:10:37.239Z,22.02
2019-04-11T04:13:13.260Z,26.30
2019-04-11T04:16:01.914Z,21.80
2019-04-11T04:18:25.092Z,21.97
2019-04-11T04:21:15.545Z,22.75
2019-04-11T04:23:49.492Z,30.48
2019-04-11T04:26:19.306Z,24.00
2019-04-11T04:28:49.173Z,21.70
2019-04-11T04:31:18.883Z,23.70
2019-04-11T04:33:48.776Z,25.80
2019-04-11T04:36:19.601Z,23.32
2019-04-11T04:38:49.456Z,23.80
2019-04-11T04:41:30.837Z,25.63
2019-04-11T04:43:53.537Z,20.20
2019-04-11T04:46:39.703Z,22.40
2019-04-11T04:48:56.019Z,22.70
2019-04-11T04:51:26.788Z,27.83
2019-04-11T04:53:57.920Z,22.17
2019-04-11T04:56:31.443Z,20.73
2019-04-11T04:58:58.955Z,25.20
2019-04-11T05:01:29.018Z,24.17
2019-04-11T05:03:59.341Z,24.87
2019-04-11T05:06:28.933Z,20.87
2019-04-11T05:09:00.056Z,23.80
2019-04-11T05:11:30.508Z,24.40
2019-04-11T05:14:00.905Z,21.10
2019-04-11T05:16:30.363Z,23.27
2019-04-11T05:19:00.803Z,19.47
2019-04-11T05:21:30.161Z,21.27
2019-04-11T05:23:59.409Z,20.05
2019-04-11T05:26:28.819Z,24.33
2019-04-11T05:28:59.070Z,21.70
2019-04-11T05:31:28.727Z,22.77
2019-04-11T05:33:58.000Z,18.80
2019-04-11T05:36:28.308Z,19.23
2019-04-11T05:38:58.248Z,20.60
2019-04-11T05:41:27.726Z,26.47
2019-04-11T05:44:00.877Z,17.67
2019-04-11T05:46:35.417Z,24.65
2019-04-11T05:49:24.849Z,21.03
2019-04-11T05:52:01.942Z,23.97
2019-04-11T05:54:39.972Z,22.63
2019-04-11T05:57:09.016Z,20.97
2019-04-11T05:59:39.112Z,17.73
2019-04-11T06:02:22.007Z,19.80
2019-04-11T06:04:57.733Z,18.98
2019-04-11T06:07:41.118Z,17.63
2019-04-11T06:10:19.920Z,23.83
2019-04-11T06:13:16.439Z,19.17
2019-04-11T06:15:51.590Z,21.83
2019-04-11T06:18:45.445Z,21.10
2019-04-11T06:21:26.165Z,18.80
2019-04-11T06:24:18.987Z,17.70
2019-04-11T06:27:02.046Z,20.57
2019-04-11T06:29:54.839Z,19.70
2019-04-11T06:32:52.729Z,17.90
2019-04-11T06:35:48.706Z,18.65
2019-04-11T06:38:58.685Z,19.37
2019-04-11T06:41:47.066Z,18.67
2019-04-11T06:44:54.900Z,20.73
2019-04-11T06:47:38.849Z,17.80
2019-04-11T06:50:25.141Z,17.23
2019-04-11T06:52:58.136Z,21.23
2019-04-11T06:55:47.295Z,17.53
2019-04-11T06:58:25.901Z,20.20
2019-04-11T07:01:03.428Z,17.27
2019-04-11T07:03:44.953Z,19.00
2019-04-11T07:06:21.775Z,18.30
2019-04-11T07:09:16.617Z,18.45
2019-04-11T07:11:52.677Z,14.33
2019-04-11T07:14:31.138Z,16.60
2019-04-11T07:17:18.874Z,17.93
2019-04-11T07:20:06.733Z,14.50
2019-04-11T07:22:53.645Z,18.90
2019-04-11T07:26:06.433Z,14.13
2019-04-11T07:29:09.908Z,15.03
2019-04-11T07:31:57.111Z,13.38
2019-04-11T07:34:48.305Z,14.00
2019-04-11T07:37:30.642Z,13.73
2019-04-11T07:40:31.414Z,11.67
2019-04-11T07:43:27.193Z,11.97
2019-04-11T07:46:19.405Z,13.30
2019-04-11T07:49:08.038Z,11.77
2019-04-11T07:51:48.629Z,16.57
2019-04-11T07:54:20.384Z,13.00
2019-04-11T07:57:08.259Z,11.93
2019-04-11T08:00:43.429Z,9.47
2019-04-11T08:03:10.156Z,11.90
2019-04-11T08:09:03.667Z,10.50
2019-04-11T08:15:15.462Z,9.23
2019-04-11T08:18:16.597Z,9.33
2019-04-11T08:21:14.278Z,13.00
2019-04-11T08:23:46.227Z,9.03
2019-04-11T08:26:59.204Z,10.43
2019-04-11T08:29:30.434Z,11.40
2019-04-11T08:33:00.383Z,10.57
2019-04-11T08:35:58.328Z,9.53
2019-04-11T08:38:46.700Z,9.50
2019-04-11T08:41:49.654Z,10.55
2019-04-11T08:44:52.405Z,15.20
2019-04-11T08:47:41.919Z,9.43
2019-04-11T08:54:01.482Z,7.57
2019-04-11T08:56:49.445Z,9.50
2019-04-11T09:00:04.155Z,11.10
2019-04-11T09:03:01.834Z,8.67
2019-04-11T09:06:14.911Z,10.23
2019-04-11T09:09:18.719Z,11.40
2019-04-11T09:12:10.106Z,12.50
2019-04-11T09:15:17.659Z,12.23
2019-04-11T09:18:06.121Z,14.30
2019-04-11T09:20:53.930Z,11.60
2019-04-11T09:23:33.478Z,9.95
2019-04-11T09:26:31.891Z,10.33
2019-04-11T09:29:03.995Z,10.47
2019-04-11T09:32:09.793Z,9.50
2019-04-11T09:34:46.052Z,9.97
2019-04-11T09:37:49.618Z,13.13
2019-04-11T09:40:58.624Z,10.33
2019-04-11T09:43:35.857Z,9.93
2019-04-11T09:47:01.353Z,10.60
2019-04-11T09:49:45.041Z,9.58
2019-04-11T09:52:27.097Z,10.80
2019-04-11T09:55:33.564Z,8.40
2019-04-11T09:58:23.775Z,7.75
2019-04-11T10:01:37.194Z,9.60
2019-04-11T10:04:17.361Z,8.53
2019-04-11T10:07:11.121Z,9.60
2019-04-11T10:10:40.230Z,8.00
2019-04-11T10:13:44.959Z,9.03
2019-04-11T10:16:35.892Z,9.30
2019-04-11T10:19:14.216Z,8.40
2019-04-11T10:21:50.447Z,9.87
2019-04-11T10:24:50.450Z,8.28
2019-04-11T10:27:30.908Z,8.53
2019-04-11T10:30:19.467Z,8.33
2019-04-11T10:32:55.261Z,9.45
2019-04-11T10:35:46.739Z,9.70
2019-04-11T10:38:20.378Z,8.03
2019-04-11T10:41:09.338Z,7.30
2019-04-11T10:43:42.569Z,7.33
2019-04-11T10:46:35.692Z,12.30
2019-04-11T10:49:17.597Z,6.90
2019-04-11T10:51:58.193Z,9.80
2019-04-11T10:54:29.679Z,10.60
2019-04-11T10:57:22.473Z,7.90
2019-04-11T10:59:52.914Z,8.95
2019-04-11T11:02:42.268Z,8.20
2019-04-11T11:05:12.849Z,9.80
2019-04-11T11:07:44.609Z,7.00
2019-04-11T11:10:17.685Z,9.70
2019-04-11T11:13:12.081Z,9.53
2019-04-11T11:15:52.323Z,8.50
2019-04-11T11:19:15.549Z,9.77
2019-04-11T11:21:19.687Z,8.70
2019-04-11T11:24:20.443Z,9.87
2019-04-11T11:26:54.532Z,7.47
2019-04-11T11:29:47.503Z,8.48
2019-04-11T11:32:25.184Z,9.67
2019-04-11T11:35:11.323Z,11.57
2019-04-11T11:37:49.351Z,9.03
2019-04-11T11:40:44.726Z,12.90
2019-04-11T11:43:23.179Z,9.97
2019-04-11T11:49:03.393Z,9.23
2019-04-11T11:52:39.341Z,11.23
2019-04-11T12:08:01.339Z,9.30
2019-04-11T12:14:43.453Z,7.83
2019-04-11T12:17:31.768Z,10.43
2019-04-11T12:20:11.644Z,10.80
2019-04-11T12:22:40.863Z,9.47
2019-04-11T12:25:25.711Z,7.97
2019-04-11T12:28:00.465Z,8.20
2019-04-11T12:30:45.487Z,8.60
2019-04-11T12:33:47.895Z,9.90
2019-04-11T12:36:28.414Z,8.30
2019-04-11T12:39:28.838Z,8.13
2019-04-11T12:42:19.191Z,7.97
2019-04-11T12:45:07.454Z,7.80
2019-04-11T12:47:46.423Z,8.47
2019-04-11T12:50:42.843Z,9.97
2019-04-11T12:53:16.686Z,7.97
2019-04-11T12:55:52.269Z,8.43
2019-04-11T12:58:28.801Z,7.63
2019-04-11T13:01:31.969Z,7.60
2019-04-11T13:04:18.420Z,7.65
2019-04-11T13:06:57.351Z,9.80
2019-04-11T13:09:51.528Z,7.22
2019-04-11T13:12:40.066Z,9.13
2019-04-11T13:15:45.500Z,7.30
2019-04-11T13:18:29.469Z,7.60
2019-04-11T13:21:35.163Z,8.08
2019-04-11T13:24:39.321Z,9.73
2019-04-11T13:27:19.711Z,7.87
2019-04-11T13:30:17.431Z,10.70
2019-04-11T13:33:02.671Z,8.38
2019-04-11T13:36:30.858Z,9.27
2019-04-11T13:39:06.540Z,9.10
2019-04-11T13:41:53.377Z,9.00
2019-04-11T13:44:34.588Z,8.40
2019-04-11T13:47:50.196Z,10.50
2019-04-11T13:50:20.042Z,9.10
2019-04-11T13:53:16.729Z,10.20
2019-04-11T13:55:54.209Z,10.10
2019-04-11T13:58:40.738Z,11.38
2019-04-11T14:01:18.638Z,10.10
2019-04-11T14:04:15.821Z,9.93
2019-04-11T14:06:45.139Z,10.27
2019-04-11T14:09:39.593Z,8.97
2019-04-11T14:12:13.964Z,9.70
2019-04-11T14:15:05.955Z,9.90
2019-04-11T14:17:58.104Z,8.00
2019-04-11T14:20:46.752Z,8.98
2019-04-11T14:23:34.988Z,10.10
2019-04-11T14:26:22.562Z,9.80
2019-04-11T14:29:00.843Z,8.50
2019-04-11T14:31:53.825Z,10.75
2019-04-11T14:34:49.314Z,9.00
2019-04-11T14:37:38.342Z,8.75
2019-04-11T14:40:26.303Z,10.70
2019-04-11T14:43:21.882Z,9.17
2019-04-11T14:46:17.653Z,10.83
2019-04-11T14:48:50.700Z,9.70
2019-04-11T14:51:54.226Z,9.80
2019-04-11T14:54:30.347Z,9.10
2019-04-11T14:57:10.463Z,9.77
2019-04-11T14:59:42.667Z,9.57
2019-04-11T15:02:16.844Z,9.57
2019-04-11T15:05:06.263Z,8.90
2019-04-11T15:07:36.943Z,8.97
2019-04-11T15:10:33.949Z,9.67
2019-04-11T15:13:04.335Z,8.80
2019-04-11T15:15:41.227Z,8.87
2019-04-11T15:18:10.918Z,9.17
2019-04-11T15:21:07.288Z,9.17
2019-04-11T15:23:39.765Z,9.23
2019-04-11T15:26:23.060Z,13.78
2019-04-11T15:28:58.008Z,10.33
2019-04-11T15:31:45.448Z,9.00
2019-04-11T15:34:36.943Z,11.57
2019-04-11T15:37:37.288Z,12.47
2019-04-11T15:40:14.723Z,15.07
2019-04-11T15:43:01.758Z,9.73
2019-04-11T15:46:02.091Z,9.30
2019-04-11T15:49:02.620Z,9.00
2019-04-11T15:51:53.933Z,11.53
2019-04-11T15:54:42.244Z,9.73
2019-04-11T15:57:19.312Z,11.03
2019-04-11T16:00:07.540Z,9.83
2019-04-11T16:02:55.143Z,10.00
2019-04-11T16:05:49.361Z,12.50
2019-04-11T16:08:44.569Z,13.47
2019-04-11T16:11:40.026Z,10.63
2019-04-11T16:14:20.008Z,10.80
2019-04-11T16:17:13.757Z,10.70
2019-04-11T16:20:05.303Z,10.53
2019-04-11T16:23:11.415Z,9.17
2019-04-11T16:25:53.308Z,11.07
2019-04-11T16:28:42.434Z,10.60
2019-04-11T16:31:13.400Z,10.30
2019-04-11T16:34:00.880Z,12.00
2019-04-11T16:36:49.753Z,9.23
2019-04-11T16:39:55.162Z,8.68
2019-04-11T16:42:53.658Z,9.90
2019-04-11T16:45:38.997Z,9.47
2019-04-11T16:48:09.072Z,8.87
2019-04-11T16:50:55.001Z,8.20
2019-04-11T16:53:24.396Z,9.20
2019-04-11T16:56:06.233Z,10.15
2019-04-11T16:58:49.332Z,10.00
2019-04-11T17:01:16.879Z,9.43
2019-04-11T17:03:48.207Z,8.53
2019-04-11T17:06:55.387Z,7.92
2019-04-11T17:09:36.043Z,7.80
2019-04-11T17:12:16.248Z,8.80
2019-04-11T17:14:54.966Z,8.03
2019-04-11T17:17:26.271Z,7.10
2019-04-11T17:19:55.464Z,7.67
2019-04-11T17:22:28.354Z,12.93
2019-04-11T17:24:57.561Z,8.77
2019-04-11T17:27:26.816Z,8.80
2019-04-11T17:29:56.150Z,8.20
2019-04-11T17:32:26.684Z,9.13
2019-04-11T17:34:56.091Z,13.70
2019-04-11T17:37:25.439Z,13.87
2019-04-11T17:39:54.811Z,9.97
2019-04-11T17:42:24.096Z,9.93
2019-04-11T17:44:53.321Z,10.20
2019-04-11T17:47:26.815Z,9.23
2019-04-11T17:49:55.493Z,7.75
2019-04-11T17:52:24.839Z,9.80
2019-04-11T17:54:54.740Z,8.83
2019-04-11T17:57:26.624Z,9.15
2019-04-11T17:59:56.727Z,7.93
2019-04-11T18:02:26.256Z,8.77
2019-04-11T18:04:55.748Z,7.80
2019-04-11T18:07:25.067Z,9.33
2019-04-11T18:09:56.158Z,8.83
2019-04-11T18:12:26.320Z,11.18
2019-04-11T18:14:56.145Z,9.28
2019-04-11T18:17:26.531Z,9.13
2019-04-11T18:19:56.326Z,14.30
2019-04-11T18:22:25.860Z,8.50
2019-04-11T18:24:56.063Z,7.83
2019-04-11T18:27:25.390Z,9.60
2019-04-11T18:29:54.659Z,9.53
2019-04-11T18:32:23.782Z,13.80
2019-04-11T18:34:53.413Z,10.70
2019-04-11T18:37:22.570Z,9.50
2019-04-11T18:39:51.721Z,10.53
2019-04-11T18:42:21.070Z,12.10
2019-04-11T18:44:50.748Z,11.83
2019-04-11T18:47:20.030Z,9.80
2019-04-11T18:49:50.953Z,9.38
2019-04-11T18:52:24.909Z,9.77
2019-04-11T18:54:51.339Z,8.97
2019-04-11T18:57:21.637Z,7.07
2019-04-11T18:59:51.479Z,9.60
2019-04-11T19:02:25.722Z,11.17
2019-04-11T19:04:55.109Z,9.90
2019-04-11T19:07:27.937Z,10.87
2019-04-11T19:10:06.360Z,11.20
2019-04-11T19:12:35.726Z,10.77
2019-04-11T19:15:08.694Z,6.90
2019-04-11T19:17:39.044Z,10.37
2019-04-11T19:20:08.617Z,7.10
2019-04-11T19:22:38.558Z,6.70
2019-04-11T19:25:12.053Z,8.37
2019-04-11T19:27:44.981Z,9.17
2019-04-11T19:30:14.831Z,10.10
2019-04-11T19:32:44.241Z,8.20
2019-04-11T19:35:13.840Z,13.50
2019-04-11T19:37:43.498Z,10.23
2019-04-11T19:40:16.141Z,7.73
2019-04-11T19:42:44.170Z,7.45
2019-04-11T19:45:13.756Z,10.97
2019-04-11T19:47:43.314Z,9.13
2019-04-11T19:50:12.767Z,8.98
2019-04-11T19:52:45.710Z,7.77
2019-04-11T19:55:48.310Z,10.00
2019-04-11T19:58:19.231Z,7.90
2019-04-11T20:00:53.208Z,9.30
2019-04-11T20:03:21.829Z,7.77
2019-04-11T20:05:51.054Z,7.80
2019-04-11T20:08:20.221Z,7.90
2019-04-11T20:10:49.509Z,13.67
2019-04-11T20:13:19.986Z,8.03
2019-04-11T20:15:50.988Z,9.23
2019-04-11T20:18:22.551Z,10.48
2019-04-11T20:20:52.300Z,6.70
2019-04-11T20:23:21.764Z,8.77
2019-04-11T20:25:51.365Z,9.07
2019-04-11T20:28:21.865Z,11.13
2019-04-11T20:30:51.261Z,9.48
2019-04-11T20:33:27.750Z,7.43
2019-04-11T20:35:57.151Z,10.50
2019-04-11T20:38:26.409Z,7.63
2019-04-11T20:40:56.238Z,8.30
2019-04-11T20:43:25.818Z,9.60
2019-04-11T20:45:58.030Z,11.50
2019-04-11T20:48:37.070Z,7.57
2019-04-11T20:51:07.568Z,8.97
2019-04-11T20:53:37.678Z,9.90
2019-04-11T20:56:09.583Z,10.47
2019-04-11T20:58:39.693Z,6.65
2019-04-11T21:01:09.080Z,8.50
2019-04-11T21:03:38.346Z,7.95
2019-04-11T21:06:08.556Z,12.35
2019-04-11T21:08:44.732Z,8.10
2019-04-11T21:11:14.252Z,10.18
2019-04-11T21:13:45.841Z,6.90
2019-04-11T21:16:28.033Z,7.60
2019-04-11T21:19:06.254Z,7.70
2019-04-11T21:21:35.474Z,9.88
2019-04-11T21:24:07.556Z,9.90
2019-04-11T21:26:40.891Z,8.80
2019-04-11T21:29:10.087Z,7.30
2019-04-11T21:31:41.678Z,7.28
2019-04-11T21:34:11.053Z,8.27
2019-04-11T21:36:40.826Z,8.87
2019-04-11T21:39:12.919Z,7.33
2019-04-11T21:41:42.221Z,15.37
2019-04-11T21:44:11.439Z,10.63
2019-04-11T21:46:42.069Z,7.60
2019-04-11T21:49:11.458Z,9.27
2019-04-11T21:51:42.593Z,12.50
2019-04-11T21:54:14.738Z,9.43
2019-04-11T21:56:44.166Z,10.43
2019-04-11T21:59:13.356Z,8.40
2019-04-11T22:01:45.246Z,10.30
2019-04-11T22:04:16.183Z,8.23
2019-04-11T22:06:45.962Z,7.92
2019-04-11T22:09:15.324Z,8.70
2019-04-11T22:11:45.631Z,9.20
2019-04-11T22:14:15.203Z,8.00
2019-04-11T22:16:45.344Z,10.13
2019-04-11T22:19:14.967Z,8.17
2019-04-11T22:21:45.441Z,7.00
2019-04-11T22:24:17.075Z,9.20
2019-04-11T22:26:50.114Z,9.70
2019-04-11T22:29:17.579Z,9.87
2019-04-11T22:31:46.859Z,10.40
2019-04-11T22:34:47.678Z,7.90
2019-04-11T22:37:17.158Z,8.50
2019-04-11T22:39:46.711Z,12.50
2019-04-11T22:42:15.986Z,11.30
2019-04-11T22:44:45.270Z,7.47
2019-04-11T22:47:14.603Z,8.00
2019-04-11T22:49:44.155Z,11.68
2019-04-11T22:52:13.543Z,8.83
2019-04-11T22:54:42.811Z,9.67
2019-04-11T22:57:12.918Z,7.90
2019-04-11T22:59:44.886Z,8.63
2019-04-11T23:02:41.895Z,8.27
2019-04-11T23:05:11.441Z,8.43
2019-04-11T23:07:40.911Z,8.80
2019-04-11T23:10:12.457Z,12.85
2019-04-11T23:12:42.916Z,8.87
2019-04-11T23:15:14.675Z,8.67
2019-04-11T23:17:44.729Z,8.17
2019-04-11T23:20:14.959Z,8.27
2019-04-11T23:22:44.420Z,9.77
2019-04-11T23:25:14.255Z,8.78
2019-04-11T23:27:43.757Z,10.03
2019-04-11T23:30:15.880Z,12.60
2019-04-11T23:32:45.784Z,9.80
2019-04-11T23:35:15.125Z,9.43
2019-04-11T23:37:51.808Z,11.70
2019-04-11T23:40:23.053Z,11.47
2019-04-11T23:42:53.799Z,12.30
2019-04-11T23:45:27.100Z,10.50
2019-04-11T23:47:57.659Z,11.77
2019-04-11T23:50:29.797Z,10.27
2019-04-11T23:52:59.081Z,13.03
2019-04-11T23:55:30.802Z,10.43
2019-04-11T23:58:02.349Z,13.80
